createdAt,value
2023-04-08T00:00:29.831Z,5.38
2023-04-08T00:02:56.690Z,4.95
2023-04-08T00:05:23.666Z,4.70
2023-04-08T00:07:50.634Z,4.47
2023-04-08T00:10:17.428Z,4.97
2023-04-08T00:12:44.348Z,5.43
2023-04-08T00:15:11.235Z,4.68
2023-04-08T00:17:38.234Z,4.90
2023-04-08T00:20:05.795Z,5.15
2023-04-08T00:22:32.688Z,4.78
2023-04-08T00:24:59.620Z,4.78
2023-04-08T00:27:26.416Z,4.03
2023-04-08T00:29:53.215Z,4.75
2023-04-08T00:32:19.999Z,4.93
2023-04-08T00:34:46.853Z,4.97
2023-04-08T00:37:13.636Z,4.65
2023-04-08T00:39:40.480Z,5.07
2023-04-08T00:42:07.205Z,4.53
2023-04-08T00:44:34.123Z,4.38
2023-04-08T00:47:01.303Z,5.20
2023-04-08T00:49:28.198Z,4.45
2023-04-08T00:51:55.775Z,4.57
2023-04-08T00:54:22.709Z,4.50
2023-04-08T00:56:49.472Z,4.75
2023-04-08T00:59:18.162Z,4.47
2023-04-08T01:01:57.185Z,4.95
2023-04-08T01:04:39.074Z,4.28
2023-04-08T01:07:28.892Z,4.55
2023-04-08T01:09:59.203Z,4.85
2023-04-08T01:12:31.850Z,4.90
2023-04-08T01:15:06.507Z,4.65
2023-04-08T01:17:34.755Z,4.20
2023-04-08T01:20:04.380Z,4.70
2023-04-08T01:23:04.328Z,4.50
2023-04-08T01:25:33.913Z,4.68
2023-04-08T01:28:03.671Z,4.85
2023-04-08T01:30:32.417Z,3.95
2023-04-08T01:33:01.697Z,4.28
2023-04-08T01:35:30.479Z,4.20
2023-04-08T01:37:59.182Z,4.40
2023-04-08T01:40:26.298Z,3.83
2023-04-08T01:42:56.540Z,4.20
2023-04-08T01:45:24.972Z,3.50
2023-04-08T01:47:53.125Z,4.10
2023-04-08T01:50:21.097Z,4.22
2023-04-08T01:52:52.990Z,3.80
2023-04-08T01:55:20.799Z,3.70
2023-04-08T01:57:52.904Z,3.78
2023-04-08T02:00:24.012Z,4.30
2023-04-08T02:02:52.704Z,4.25
2023-04-08T02:05:20.053Z,4.18
2023-04-08T02:07:48.630Z,3.90
2023-04-08T02:10:16.198Z,4.43
2023-04-08T02:12:44.358Z,5.00
2023-04-08T02:15:12.916Z,4.50
2023-04-08T02:18:07.878Z,4.13
2023-04-08T02:20:37.567Z,3.97
2023-04-08T02:23:20.784Z,4.18
2023-04-08T02:25:49.632Z,4.15
2023-04-08T02:28:18.881Z,4.60
2023-04-08T02:30:51.357Z,5.10
2023-04-08T02:33:22.652Z,5.07
2023-04-08T02:35:56.087Z,4.53
2023-04-08T02:38:24.110Z,4.88
2023-04-08T02:40:51.390Z,4.70
2023-04-08T02:43:18.319Z,5.00
2023-04-08T02:45:45.486Z,5.07
2023-04-08T02:48:12.418Z,5.32
2023-04-08T02:50:39.987Z,4.90
2023-04-08T02:53:08.857Z,5.25
2023-04-08T02:55:35.906Z,5.50
2023-04-08T02:58:02.623Z,5.60
2023-04-08T03:00:29.444Z,5.28
2023-04-08T03:02:56.543Z,4.97
2023-04-08T03:05:23.638Z,5.15
2023-04-08T03:07:50.439Z,4.60
2023-04-08T03:10:17.278Z,5.32
2023-04-08T03:12:44.005Z,4.70
2023-04-08T03:15:10.801Z,4.72
2023-04-08T03:17:37.718Z,4.80
2023-04-08T03:20:05.196Z,4.72
2023-04-08T03:22:32.169Z,5.05
2023-04-08T03:24:59.215Z,4.93
2023-04-08T03:27:26.268Z,4.78
2023-04-08T03:29:53.208Z,4.65
2023-04-08T03:32:20.295Z,3.40
2023-04-08T03:34:47.127Z,3.03
2023-04-08T03:37:13.847Z,3.05
2023-04-08T03:39:40.579Z,3.15
2023-04-08T03:42:07.361Z,2.83
2023-04-08T03:44:34.184Z,3.10
2023-04-08T03:47:00.969Z,3.42
2023-04-08T03:49:27.770Z,3.17
2023-04-08T03:51:54.528Z,3.08
2023-04-08T03:54:21.301Z,3.92
2023-04-08T03:56:50.394Z,3.72
2023-04-08T03:59:17.179Z,3.60
2023-04-08T04:01:43.941Z,3.35
2023-04-08T04:04:11.933Z,3.53
2023-04-08T04:06:39.084Z,3.05
2023-04-08T04:09:05.884Z,3.30
2023-04-08T04:11:34.642Z,3.20
2023-04-08T04:14:01.668Z,3.38
2023-04-08T04:16:29.426Z,2.95
2023-04-08T04:18:57.628Z,3.40
2023-04-08T04:21:24.381Z,3.33
2023-04-08T04:23:51.150Z,3.17
2023-04-08T04:26:17.964Z,3.40
2023-04-08T04:28:44.928Z,3.08
2023-04-08T04:31:27.967Z,3.17
2023-04-08T04:33:54.961Z,3.40
2023-04-08T04:36:21.781Z,3.20
2023-04-08T04:38:50.527Z,3.38
2023-04-08T04:41:17.958Z,3.13
2023-04-08T04:43:44.888Z,3.38
2023-04-08T04:46:11.904Z,3.15
2023-04-08T04:48:38.650Z,3.20
2023-04-08T04:51:05.646Z,3.10
2023-04-08T04:53:32.428Z,3.28
2023-04-08T04:56:01.268Z,3.30
2023-04-08T04:58:28.618Z,3.30
2023-04-08T05:00:56.004Z,3.60
2023-04-08T05:03:23.021Z,3.30
2023-04-08T05:05:53.947Z,3.30
2023-04-08T05:08:21.822Z,3.20
2023-04-08T05:10:50.642Z,3.65
2023-04-08T05:13:18.403Z,3.25
2023-04-08T05:15:47.926Z,3.80
2023-04-08T05:18:14.926Z,3.42
2023-04-08T05:20:41.790Z,3.42
2023-04-08T05:23:08.671Z,3.38
2023-04-08T05:25:35.534Z,2.85
2023-04-08T05:28:02.626Z,3.00
2023-04-08T05:30:29.433Z,3.13
2023-04-08T05:32:59.361Z,3.35
2023-04-08T05:35:27.213Z,3.03
2023-04-08T05:37:54.049Z,3.22
2023-04-08T05:40:21.201Z,3.10
2023-04-08T05:42:47.980Z,3.45
2023-04-08T05:45:14.829Z,3.20
2023-04-08T05:47:41.642Z,3.83
2023-04-08T05:50:08.902Z,4.00
2023-04-08T05:52:35.819Z,3.70
2023-04-08T05:55:02.675Z,3.30
2023-04-08T05:57:29.608Z,3.28
2023-04-08T05:59:56.453Z,2.55
2023-04-08T06:02:23.367Z,2.83
2023-04-08T06:04:50.366Z,3.10
2023-04-08T06:07:17.198Z,2.72
2023-04-08T06:09:45.372Z,2.90
2023-04-08T06:12:12.190Z,2.85
2023-04-08T06:14:39.054Z,2.75
2023-04-08T06:17:06.442Z,2.60
2023-04-08T06:19:33.392Z,2.65
2023-04-08T06:22:00.208Z,2.72
2023-04-08T06:24:27.583Z,2.38
2023-04-08T06:26:54.370Z,2.40
2023-04-08T06:29:21.946Z,2.30
2023-04-08T06:31:49.635Z,2.80
2023-04-08T06:34:17.264Z,2.30
2023-04-08T06:36:44.367Z,2.38
2023-04-08T06:39:11.229Z,2.22
2023-04-08T06:41:38.040Z,1.98
2023-04-08T06:44:19.114Z,2.45
2023-04-08T06:46:46.741Z,2.45
2023-04-08T06:49:13.552Z,2.45
2023-04-08T06:51:40.523Z,2.53
2023-04-08T06:54:07.373Z,2.50
2023-04-08T06:56:34.073Z,3.58
2023-04-08T06:59:01.329Z,2.95
2023-04-08T07:01:28.110Z,2.88
2023-04-08T07:03:55.040Z,2.70
2023-04-08T07:06:21.881Z,4.30
2023-04-08T07:08:48.971Z,3.80
2023-04-08T07:11:16.236Z,3.00
2023-04-08T07:13:43.565Z,4.70
2023-04-08T07:16:10.402Z,5.80
2023-04-08T07:18:37.935Z,2.88
2023-04-08T07:21:04.699Z,3.33
2023-04-08T07:23:31.517Z,2.58
2023-04-08T07:26:05.339Z,2.40
2023-04-08T07:28:32.329Z,2.33
2023-04-08T07:31:13.413Z,2.13
2023-04-08T07:33:40.350Z,2.00
2023-04-08T07:36:08.646Z,1.73
2023-04-08T07:38:35.410Z,1.70
2023-04-08T07:41:02.164Z,1.70
2023-04-08T07:43:28.960Z,2.03
2023-04-08T07:46:02.704Z,1.70
2023-04-08T07:48:30.674Z,1.77
2023-04-08T07:51:08.570Z,1.70
2023-04-08T07:53:37.746Z,1.67
2023-04-08T07:56:14.058Z,1.77
2023-04-08T07:58:41.791Z,1.52
2023-04-08T08:01:18.582Z,1.30
2023-04-08T08:03:46.164Z,1.90
2023-04-08T08:06:13.257Z,2.00
2023-04-08T08:08:40.541Z,1.90
2023-04-08T08:11:07.299Z,1.60
2023-04-08T08:13:34.652Z,1.48
2023-04-08T08:16:01.580Z,1.35
2023-04-08T08:18:28.408Z,1.48
2023-04-08T08:20:55.158Z,1.63
2023-04-08T08:23:22.055Z,1.60
2023-04-08T08:25:48.754Z,1.15
2023-04-08T08:28:15.496Z,1.70
2023-04-08T08:30:42.193Z,1.20
2023-04-08T08:33:08.969Z,1.27
2023-04-08T08:35:35.864Z,1.33
2023-04-08T08:38:03.113Z,1.50
2023-04-08T08:40:29.848Z,1.40
2023-04-08T08:42:59.035Z,1.20
2023-04-08T08:45:25.890Z,1.30
2023-04-08T08:47:53.019Z,1.10
2023-04-08T08:50:19.994Z,1.23
2023-04-08T08:52:51.681Z,1.08
2023-04-08T08:55:41.304Z,1.08
2023-04-08T08:58:08.880Z,1.50
2023-04-08T09:00:37.986Z,1.10
2023-04-08T09:03:24.896Z,1.17
2023-04-08T09:05:59.670Z,1.17
2023-04-08T09:08:29.461Z,1.00
2023-04-08T09:11:10.361Z,1.17
2023-04-08T09:13:37.509Z,1.08
2023-04-08T09:16:07.144Z,1.45
2023-04-08T09:18:34.123Z,1.20
2023-04-08T09:21:02.189Z,1.10
2023-04-08T09:23:42.716Z,1.17
2023-04-08T09:26:16.740Z,1.23
2023-04-08T09:28:57.616Z,1.37
2023-04-08T09:31:29.650Z,1.33
2023-04-08T09:33:58.640Z,1.30
2023-04-08T09:36:27.402Z,1.40
2023-04-08T09:38:55.413Z,1.20
2023-04-08T09:41:24.298Z,1.13
2023-04-08T09:43:55.865Z,1.10
2023-04-08T09:46:49.701Z,0.85
2023-04-08T09:49:25.440Z,0.90
2023-04-08T09:52:17.253Z,1.35
2023-04-08T09:55:08.493Z,1.13
2023-04-08T09:57:46.612Z,1.25
2023-04-08T10:00:14.950Z,1.00
2023-04-08T10:03:20.868Z,1.10
2023-04-08T10:05:49.035Z,1.00
2023-04-08T10:08:16.328Z,1.10
2023-04-08T10:10:45.102Z,1.10
2023-04-08T10:13:13.135Z,0.90
2023-04-08T10:15:43.054Z,1.00
2023-04-08T10:18:09.785Z,0.90
2023-04-08T10:20:36.567Z,0.90
2023-04-08T10:23:11.398Z,1.00
2023-04-08T10:25:41.335Z,1.02
2023-04-08T10:28:11.300Z,1.02
2023-04-08T10:30:51.454Z,0.90
2023-04-08T10:33:30.369Z,0.88
2023-04-08T10:36:09.708Z,1.10
2023-04-08T10:38:37.094Z,0.80
2023-04-08T10:41:04.200Z,0.70
2023-04-08T10:43:35.152Z,1.00
2023-04-08T10:46:02.428Z,1.10
2023-04-08T10:48:29.561Z,1.17
2023-04-08T10:51:03.930Z,1.52
2023-04-08T10:53:33.517Z,1.50
2023-04-08T10:56:13.011Z,1.33
2023-04-08T10:58:51.341Z,1.48
2023-04-08T11:01:19.203Z,1.70
2023-04-08T11:03:46.305Z,1.63
2023-04-08T11:06:13.183Z,1.38
2023-04-08T11:08:39.952Z,1.67
2023-04-08T11:11:11.194Z,1.70
2023-04-08T11:13:46.438Z,1.88
2023-04-08T11:16:20.982Z,1.92
2023-04-08T11:18:48.212Z,2.53
2023-04-08T11:21:16.140Z,2.35
2023-04-08T11:23:43.103Z,2.70
2023-04-08T11:26:11.094Z,2.42
2023-04-08T11:28:38.487Z,2.00
2023-04-08T11:31:05.915Z,2.30
2023-04-08T11:33:34.911Z,1.95
2023-04-08T11:36:04.523Z,2.00
2023-04-08T11:38:31.921Z,1.90
2023-04-08T11:41:00.138Z,2.00
2023-04-08T11:43:27.321Z,2.40
2023-04-08T11:45:54.252Z,2.17
2023-04-08T11:48:21.268Z,2.58
2023-04-08T11:50:48.217Z,2.55
2023-04-08T11:53:25.061Z,2.50
2023-04-08T11:55:52.445Z,2.88
2023-04-08T11:58:19.233Z,3.00
2023-04-08T12:00:46.030Z,2.65
2023-04-08T12:03:13.569Z,2.47
2023-04-08T12:05:40.769Z,2.58
2023-04-08T12:08:07.563Z,2.30
2023-04-08T12:10:34.423Z,2.10
2023-04-08T12:13:01.314Z,2.55
2023-04-08T12:15:28.102Z,2.20
2023-04-08T12:17:54.972Z,3.15
2023-04-08T12:20:21.872Z,2.90
2023-04-08T12:22:48.612Z,2.65
2023-04-08T12:25:15.425Z,2.90
2023-04-08T12:27:42.184Z,2.85
2023-04-08T12:30:09.642Z,3.20
2023-04-08T12:32:36.393Z,3.22
2023-04-08T12:35:03.214Z,3.30
2023-04-08T12:37:29.944Z,3.20
2023-04-08T12:39:56.767Z,2.70
2023-04-08T12:42:23.469Z,8.95
2023-04-08T12:44:50.252Z,6.60
2023-04-08T12:47:17.315Z,5.55
2023-04-08T12:49:49.498Z,4.65
2023-04-08T12:52:17.576Z,3.95
2023-04-08T12:54:44.942Z,4.32
2023-04-08T12:57:12.460Z,7.25
2023-04-08T12:59:40.088Z,7.75
2023-04-08T13:02:07.885Z,6.70
2023-04-08T13:04:35.291Z,6.78
2023-04-08T13:07:02.402Z,6.47
2023-04-08T13:09:30.777Z,9.55
2023-04-08T13:11:58.228Z,7.88
2023-04-08T13:14:25.437Z,7.00
2023-04-08T13:16:52.545Z,9.88
2023-04-08T13:19:19.354Z,6.95
2023-04-08T13:21:46.461Z,6.15
2023-04-08T13:24:14.413Z,6.57
2023-04-08T13:26:41.376Z,6.15
2023-04-08T13:29:08.049Z,6.38
2023-04-08T13:31:34.944Z,6.00
2023-04-08T13:34:01.684Z,7.55
2023-04-08T13:36:28.932Z,10.30
2023-04-08T13:38:56.512Z,6.10
2023-04-08T13:41:23.440Z,5.65
2023-04-08T13:43:50.658Z,4.90
2023-04-08T13:46:18.451Z,4.80
2023-04-08T13:48:46.191Z,5.28
2023-04-08T13:51:13.121Z,4.32
2023-04-08T13:53:39.850Z,4.88
2023-04-08T13:56:07.040Z,5.18
2023-04-08T13:58:33.913Z,4.63
2023-04-08T14:01:00.919Z,4.88
2023-04-08T14:03:28.175Z,5.22
2023-04-08T14:05:55.062Z,5.03
2023-04-08T14:08:25.697Z,4.05
2023-04-08T14:10:55.557Z,3.92
2023-04-08T14:13:22.391Z,5.03
2023-04-08T14:15:49.851Z,5.20
2023-04-08T14:18:19.766Z,5.18
2023-04-08T14:20:47.132Z,6.18
2023-04-08T14:23:13.870Z,6.10
2023-04-08T14:25:40.931Z,5.50
2023-04-08T14:28:08.116Z,5.13
2023-04-08T14:30:36.126Z,4.88
2023-04-08T14:33:04.706Z,4.45
2023-04-08T14:35:31.576Z,5.05
2023-04-08T14:37:58.645Z,4.43
2023-04-08T14:40:25.576Z,4.47
2023-04-08T14:42:52.708Z,5.15
2023-04-08T14:45:19.653Z,5.00
2023-04-08T14:47:46.634Z,5.55
2023-04-08T14:50:13.498Z,6.10
2023-04-08T14:52:40.523Z,5.00
2023-04-08T14:55:07.619Z,4.68
2023-04-08T14:57:34.373Z,5.57
2023-04-08T15:00:01.821Z,5.22
2023-04-08T15:02:28.731Z,4.32
2023-04-08T15:04:55.589Z,4.80
2023-04-08T15:07:22.698Z,5.18
2023-04-08T15:09:49.496Z,5.32
2023-04-08T15:12:16.234Z,5.63
2023-04-08T15:14:43.015Z,6.32
2023-04-08T15:17:10.251Z,6.05
2023-04-08T15:19:37.007Z,6.00
2023-04-08T15:22:03.792Z,7.10
2023-04-08T15:24:30.573Z,6.38
2023-04-08T15:26:57.523Z,5.88
2023-04-08T15:29:24.728Z,5.95
2023-04-08T15:31:52.544Z,5.70
2023-04-08T15:34:19.424Z,6.78
2023-04-08T15:36:47.375Z,8.25
2023-04-08T15:39:14.379Z,5.95
2023-04-08T15:41:41.488Z,5.93
2023-04-08T15:44:08.352Z,5.95
2023-04-08T15:46:37.274Z,5.40
2023-04-08T15:49:04.644Z,5.97
2023-04-08T15:51:32.218Z,7.03
2023-04-08T15:53:59.512Z,6.43
2023-04-08T15:56:28.266Z,7.30
2023-04-08T15:58:56.459Z,6.82
2023-04-08T16:01:23.501Z,6.00
2023-04-08T16:03:50.564Z,6.80
2023-04-08T16:06:17.388Z,7.80
2023-04-08T16:08:44.776Z,7.78
2023-04-08T16:11:11.526Z,9.02
2023-04-08T16:13:40.582Z,9.68
2023-04-08T16:16:08.859Z,9.98
2023-04-08T16:18:35.745Z,9.75
2023-04-08T16:21:05.716Z,9.73
2023-04-08T16:23:34.026Z,7.97
2023-04-08T16:26:01.308Z,9.98
2023-04-08T16:28:28.174Z,11.45
2023-04-08T16:30:56.009Z,9.90
2023-04-08T16:33:29.586Z,9.50
2023-04-08T16:35:57.158Z,9.75
2023-04-08T16:38:24.921Z,9.35
2023-04-08T16:40:52.342Z,8.07
2023-04-08T16:43:19.260Z,7.85
2023-04-08T16:45:46.037Z,7.45
2023-04-08T16:48:12.844Z,6.80
2023-04-08T16:50:40.205Z,6.82
2023-04-08T16:53:07.175Z,6.28
2023-04-08T16:55:35.515Z,7.15
2023-04-08T16:58:03.849Z,6.55
2023-04-08T17:00:31.165Z,6.57
2023-04-08T17:02:59.003Z,6.30
2023-04-08T17:05:26.395Z,6.63
2023-04-08T17:07:53.512Z,6.55
2023-04-08T17:10:22.836Z,6.93
2023-04-08T17:12:49.676Z,6.60
2023-04-08T17:15:16.469Z,7.15
2023-04-08T17:17:43.324Z,6.95
2023-04-08T17:20:10.688Z,6.55
2023-04-08T17:22:37.488Z,7.07
2023-04-08T17:25:04.645Z,6.25
2023-04-08T17:27:31.394Z,6.18
2023-04-08T17:29:58.329Z,7.47
2023-04-08T17:32:25.343Z,6.68
2023-04-08T17:34:53.043Z,6.28
2023-04-08T17:37:20.195Z,6.13
2023-04-08T17:39:47.463Z,5.40
2023-04-08T17:42:14.275Z,5.35
2023-04-08T17:44:42.706Z,4.90
2023-04-08T17:47:09.502Z,5.22
2023-04-08T17:49:36.304Z,6.32
2023-04-08T17:52:03.406Z,6.03
2023-04-08T17:54:33.050Z,6.10
2023-04-08T17:57:00.019Z,6.45
2023-04-08T17:59:26.943Z,5.88
2023-04-08T18:01:54.062Z,6.10
2023-04-08T18:04:21.342Z,5.90
2023-04-08T18:06:48.154Z,6.22
2023-04-08T18:09:14.908Z,6.35
2023-04-08T18:11:41.744Z,6.22
2023-04-08T18:14:08.612Z,5.32
2023-04-08T18:16:35.498Z,6.15
2023-04-08T18:19:02.486Z,6.20
2023-04-08T18:21:29.258Z,6.38
2023-04-08T18:23:56.043Z,6.60
2023-04-08T18:26:22.912Z,6.55
2023-04-08T18:28:49.667Z,5.90
2023-04-08T18:31:16.674Z,6.63
2023-04-08T18:33:43.658Z,6.05
2023-04-08T18:36:14.763Z,6.38
2023-04-08T18:38:41.830Z,6.90
2023-04-08T18:41:08.589Z,6.53
2023-04-08T18:43:35.672Z,6.63
2023-04-08T18:46:02.569Z,6.30
2023-04-08T18:48:29.511Z,7.07
2023-04-08T18:50:56.694Z,6.80
2023-04-08T18:53:23.451Z,7.15
2023-04-08T18:55:51.186Z,7.28
2023-04-08T18:58:18.197Z,6.65
2023-04-08T19:00:45.389Z,7.63
2023-04-08T19:03:12.288Z,7.13
2023-04-08T19:05:39.251Z,6.45
2023-04-08T19:08:06.227Z,6.40
2023-04-08T19:10:33.976Z,5.70
2023-04-08T19:13:01.551Z,5.78
2023-04-08T19:15:31.249Z,6.85
2023-04-08T19:17:59.115Z,7.38
2023-04-08T19:20:27.232Z,8.02
2023-04-08T19:22:55.619Z,6.65
2023-04-08T19:25:22.364Z,7.13
2023-04-08T19:27:49.140Z,6.82
2023-04-08T19:30:16.025Z,6.85
2023-04-08T19:32:43.151Z,6.90
2023-04-08T19:35:12.853Z,7.10
2023-04-08T19:37:39.751Z,7.78
2023-04-08T19:40:09.923Z,8.82
2023-04-08T19:42:36.723Z,8.52
2023-04-08T19:45:05.138Z,8.10
2023-04-08T19:47:32.048Z,8.55
2023-04-08T19:49:59.729Z,8.07
2023-04-08T19:52:26.715Z,7.95
2023-04-08T19:54:53.664Z,8.35
2023-04-08T19:57:20.698Z,7.88
2023-04-08T19:59:50.307Z,7.82
2023-04-08T20:02:17.247Z,7.65
2023-04-08T20:04:45.608Z,7.85
2023-04-08T20:07:13.421Z,7.65
2023-04-08T20:09:40.258Z,8.07
2023-04-08T20:12:07.316Z,8.15
2023-04-08T20:14:40.406Z,8.05
2023-04-08T20:17:07.526Z,7.72
2023-04-08T20:19:34.338Z,7.50
2023-04-08T20:22:01.628Z,8.07
2023-04-08T20:24:28.377Z,8.15
2023-04-08T20:26:55.469Z,8.50
2023-04-08T20:29:22.232Z,8.25
2023-04-08T20:31:49.735Z,8.52
2023-04-08T20:34:16.950Z,8.95
2023-04-08T20:36:44.145Z,8.82
2023-04-08T20:39:11.814Z,9.45
2023-04-08T20:41:38.725Z,9.85
2023-04-08T20:44:07.025Z,9.85
2023-04-08T20:46:35.075Z,10.15
2023-04-08T20:49:03.664Z,10.38
2023-04-08T20:51:32.446Z,9.30
2023-04-08T20:54:00.009Z,10.07
2023-04-08T20:56:27.309Z,10.38
2023-04-08T20:58:54.488Z,10.88
2023-04-08T21:01:22.048Z,10.02
2023-04-08T21:03:49.225Z,10.77
2023-04-08T21:06:19.652Z,10.98
2023-04-08T21:08:47.115Z,9.70
2023-04-08T21:11:14.355Z,10.30
2023-04-08T21:13:41.274Z,10.27
2023-04-08T21:16:08.825Z,10.60
2023-04-08T21:18:38.910Z,11.88
2023-04-08T21:21:05.965Z,11.52
2023-04-08T21:23:32.750Z,10.75
2023-04-08T21:26:01.342Z,12.02
2023-04-08T21:28:29.583Z,12.15
2023-04-08T21:30:56.562Z,12.18
2023-04-08T21:33:23.323Z,11.52
2023-04-08T21:35:50.235Z,11.68
2023-04-08T21:38:17.108Z,11.40
2023-04-08T21:40:43.896Z,10.32
2023-04-08T21:43:10.633Z,10.65
2023-04-08T21:45:37.458Z,12.00
2023-04-08T21:48:04.364Z,12.18
2023-04-08T21:50:32.365Z,10.43
2023-04-08T21:52:59.181Z,9.60
2023-04-08T21:55:26.438Z,10.52
2023-04-08T21:57:53.155Z,8.93
2023-04-08T22:00:19.938Z,10.57
2023-04-08T22:02:46.885Z,10.20
2023-04-08T22:05:14.033Z,9.50
2023-04-08T22:07:40.739Z,9.73
2023-04-08T22:10:08.110Z,9.90
2023-04-08T22:12:34.917Z,9.70
2023-04-08T22:15:01.768Z,9.65
2023-04-08T22:17:28.555Z,9.05
2023-04-08T22:19:55.850Z,9.65
2023-04-08T22:22:22.644Z,9.25
2023-04-08T22:24:49.407Z,9.27
2023-04-08T22:27:16.232Z,8.90
2023-04-08T22:29:43.014Z,9.57
2023-04-08T22:32:09.784Z,10.20
2023-04-08T22:34:36.724Z,9.93
2023-04-08T22:37:03.555Z,8.80
2023-04-08T22:39:30.716Z,9.95
2023-04-08T22:41:57.474Z,8.95
2023-04-08T22:44:24.236Z,8.52
2023-04-08T22:46:51.489Z,8.52
2023-04-08T22:49:18.258Z,8.45
2023-04-08T22:51:44.947Z,8.77
2023-04-08T22:54:11.809Z,8.77
2023-04-08T22:56:38.536Z,8.90
2023-04-08T22:59:05.595Z,8.35
2023-04-08T23:01:32.625Z,7.93
2023-04-08T23:03:59.540Z,8.30
2023-04-08T23:06:27.341Z,8.55
2023-04-08T23:08:54.201Z,7.95
2023-04-08T23:11:21.234Z,8.82
2023-04-08T23:13:48.016Z,7.97
2023-04-08T23:16:14.910Z,8.85
2023-04-08T23:18:41.719Z,8.00
2023-04-08T23:21:08.470Z,7.85
2023-04-08T23:23:35.191Z,8.32
2023-04-08T23:26:01.969Z,8.52
2023-04-08T23:28:28.780Z,8.35
2023-04-08T23:30:55.792Z,8.88
2023-04-08T23:33:22.603Z,7.88
2023-04-08T23:35:49.323Z,8.35
2023-04-08T23:38:16.184Z,10.68
2023-04-08T23:40:42.929Z,10.05
2023-04-08T23:43:09.720Z,9.35
2023-04-08T23:45:36.444Z,9.80
2023-04-08T23:48:03.293Z,8.90
2023-04-08T23:50:30.334Z,8.32
2023-04-08T23:52:57.056Z,8.60
2023-04-08T23:55:23.787Z,9.02
2023-04-08T23:57:50.712Z,7.80
